Doylestown, Pennsylvania
Current Conditions -  °F | °C
As of 11:54 AM on Friday 24 Oct 2014 (Local Time) from KDYL Reporting Station
Few Clouds Few Clouds  
Wind Chill: 62°   Ceiling: Unl
Heat Index: 62°   Visibility: 10mi
Dew Point: 44°   Wind: 14mph
Humidity: 52%   Direction: 320°NW
Pressure: 29.85"   Gusts: 20mph
Location:  40.31°N, 75.13°W
Report Text: KDYL 241554Z AUTO 32012G17KT 10SM FEW043 17/07 A2985 RMK AO2 PK WND 36027/1540 SLP108 T01670067
Loading
Personal Weather Stations






























Interactive Weather Map
Tropical Storm Tracking
New forecast layout! Learn more

10-Day Weather Forecast

Advertisements
Track Severe Weather on mobile